Time;durP1;ratioP1;P1;durP2;ratioP2;P2;SDS_P1;SDS_P2;PMS_P1;PMS_P2;Temp;Humidity;BMP_temperature;BMP_pressure;BME280_temperature;BME280_humidity;BME280_pressure;Samples;Min_cycle;Max_cycle;Signal;HPM_P1;HPM_P2
2023/10/23 00:02:17;;;;;;;20.67;13.35;;;;;;;;;;5026944;28;20240;-69
2023/10/23 00:04:43;;;;;;;24.17;13.80;;;;;;;;;;5024663;28;20194;-69
2023/10/23 00:07:08;;;;;;;26.45;15.35;;;;;;;;;;5026947;28;20194;-69
2023/10/23 00:09:34;;;;;;;24.25;15.38;;;;;;;;;;5031769;28;20181;-70
2023/10/23 00:11:59;;;;;;;24.77;14.13;;;;;;;;;;5019137;28;20650;-70
2023/10/23 00:14:24;;;;;;;22.80;13.98;;;;;;;;;;5016900;28;20301;-70
2023/10/23 00:16:50;;;;;;;28.30;14.35;;;;;;;;;;5021359;28;20187;-70
2023/10/23 00:19:16;;;;;;;24.92;14.68;;;;;;;;;;5032571;28;20283;-69
2023/10/23 00:21:42;;;;;;;23.05;14.40;;;;;;;;;;5024662;28;20245;-70
2023/10/23 00:24:07;;;;;;;20.80;12.27;;;;;;;;;;5021838;28;20212;-70
2023/10/23 00:26:33;;;;;;;24.67;14.20;;;;;;;;;;5015830;28;20205;-71
2023/10/23 00:29:01;;;;;;;18.80;12.82;;;;;;;;;;5021976;28;20186;-71
2023/10/23 00:31:27;;;;;;;18.63;11.90;;;;;;;;;;5046690;28;20190;-70
2023/10/23 00:33:52;;;;;;;17.35;11.65;;;;;;;;;;5036415;28;20197;-70
2023/10/23 00:36:18;;;;;;;20.60;13.27;;;;;;;;;;5034465;28;20182;-70
2023/10/23 00:38:43;;;;;;;20.67;11.40;;;;;;;;;;5033144;28;20209;-70
2023/10/23 00:41:09;;;;;;;19.33;11.13;;;;;;;;;;5021610;28;20250;-70
2023/10/23 00:43:34;;;;;;;19.48;12.20;;;;;;;;;;5025529;28;20201;-70
2023/10/23 00:46:01;;;;;;;17.75;11.82;;;;;;;;;;5023191;28;20530;-70
2023/10/23 00:48:27;;;;;;;23.77;12.35;;;;;;;;;;5032112;28;20182;-70
2023/10/23 00:50:58;;;;;;;17.60;11.25;;;;;;;;;;5028820;28;20236;-70
2023/10/23 00:53:27;;;;;;;18.95;11.13;;;;;;;;;;5028664;28;20679;-70
2023/10/23 00:55:55;;;;;;;20.92;11.52;;;;;;;;;;5032102;28;20190;-70
2023/10/23 00:58:25;;;;;;;19.85;12.30;;;;;;;;;;5032322;28;20205;-70
2023/10/23 01:00:50;;;;;;;15.35;10.35;;;;;;;;;;5028542;28;20194;-70
2023/10/23 01:03:16;;;;;;;19.60;11.05;;;;;;;;;;5026721;28;20515;-71
2023/10/23 01:05:42;;;;;;;19.42;11.85;;;;;;;;;;5027192;28;20213;-71
2023/10/23 01:08:07;;;;;;;18.77;12.07;;;;;;;;;;5030595;28;20209;-71
2023/10/23 01:10:33;;;;;;;22.90;13.23;;;;;;;;;;5022841;28;20198;-71
2023/10/23 01:12:58;;;;;;;21.80;13.00;;;;;;;;;;5032572;28;20554;-71
2023/10/23 01:15:24;;;;;;;22.92;13.40;;;;;;;;;;5027199;28;20601;-71
2023/10/23 01:17:49;;;;;;;20.88;12.70;;;;;;;;;;5030164;28;20202;-70
2023/10/23 01:20:16;;;;;;;22.88;13.27;;;;;;;;;;5030349;28;20197;-71
2023/10/23 01:22:41;;;;;;;20.48;12.55;;;;;;;;;;5030856;28;20280;-71
2023/10/23 01:25:13;;;;;;;21.08;12.27;;;;;;;;;;5030712;28;20273;-71
2023/10/23 01:27:39;;;;;;;22.45;12.90;;;;;;;;;;5026409;28;20190;-71
2023/10/23 01:30:05;;;;;;;19.85;12.45;;;;;;;;;;5030311;28;20186;-70
2023/10/23 01:32:30;;;;;;;20.40;12.90;;;;;;;;;;5028612;28;20190;-71
2023/10/23 01:34:56;;;;;;;21.83;13.07;;;;;;;;;;5020391;28;20733;-71
2023/10/23 01:37:21;;;;;;;22.43;13.30;;;;;;;;;;5022903;28;20190;-71
2023/10/23 01:39:46;;;;;;;21.37;13.20;;;;;;;;;;5031432;28;20269;-72
2023/10/23 01:42:12;;;;;;;20.55;12.45;;;;;;;;;;5025024;28;20634;-71
2023/10/23 01:44:37;;;;;;;19.42;12.95;;;;;;;;;;5017092;28;20187;-71
2023/10/23 01:47:03;;;;;;;23.67;12.57;;;;;;;;;;5024666;28;20247;-71
2023/10/23 01:49:28;;;;;;;19.87;12.60;;;;;;;;;;5022164;28;20212;-71
2023/10/23 01:51:54;;;;;;;27.63;13.97;;;;;;;;;;5023607;28;20186;-71
2023/10/23 01:54:20;;;;;;;20.53;13.20;;;;;;;;;;5027876;28;20195;-71
2023/10/23 01:56:45;;;;;;;21.60;12.60;;;;;;;;;;5026367;28;20547;-70
2023/10/23 01:59:11;;;;;;;22.23;13.20;;;;;;;;;;5025903;28;20217;-71
2023/10/23 02:01:38;;;;;;;23.17;14.10;;;;;;;;;;5019653;28;20520;-71
2023/10/23 02:04:04;;;;;;;25.63;13.77;;;;;;;;;;5025015;28;20247;-71
2023/10/23 02:06:29;;;;;;;23.93;14.37;;;;;;;;;;5034770;28;20178;-71
2023/10/23 02:08:55;;;;;;;21.67;12.57;;;;;;;;;;5029611;28;20550;-70
2023/10/23 02:11:20;;;;;;;27.13;15.60;;;;;;;;;;5031334;28;20295;-71
2023/10/23 02:13:45;;;;;;;49.97;16.90;;;;;;;;;;5046208;28;20214;-70
2023/10/23 02:16:11;;;;;;;67.40;18.63;;;;;;;;;;5029709;28;20234;-71
2023/10/23 02:18:36;;;;;;;66.43;19.23;;;;;;;;;;5011216;28;20213;-70
2023/10/23 02:21:02;;;;;;;101.75;20.33;;;;;;;;;;5034185;28;20181;-70
2023/10/23 02:23:29;;;;;;;111.00;20.35;;;;;;;;;;5035948;28;20186;-70
2023/10/23 02:25:55;;;;;;;80.22;19.27;;;;;;;;;;5030780;28;20184;-70
2023/10/23 02:28:20;;;;;;;84.10;19.60;;;;;;;;;;5030964;28;20261;-70
2023/10/23 02:30:45;;;;;;;75.20;18.48;;;;;;;;;;5032894;28;20209;-72
2023/10/23 02:33:11;;;;;;;60.35;17.23;;;;;;;;;;5030272;28;20190;-71
2023/10/23 02:35:36;;;;;;;116.47;23.05;;;;;;;;;;5030768;28;20200;-71
2023/10/23 02:38:02;;;;;;;95.20;19.70;;;;;;;;;;5026314;28;20224;-71
2023/10/23 02:40:28;;;;;;;68.22;20.40;;;;;;;;;;5029657;28;20596;-70
2023/10/23 02:42:53;;;;;;;42.30;19.05;;;;;;;;;;5016199;28;20205;-70
2023/10/23 02:45:19;;;;;;;62.75;20.13;;;;;;;;;;5019551;28;20190;-71
2023/10/23 02:47:44;;;;;;;54.33;18.95;;;;;;;;;;5015975;28;20242;-70
2023/10/23 02:50:10;;;;;;;39.63;15.52;;;;;;;;;;5029087;28;20212;-70
2023/10/23 02:52:35;;;;;;;89.82;20.38;;;;;;;;;;5039933;28;20272;-70
2023/10/23 02:55:00;;;;;;;40.30;18.55;;;;;;;;;;5034811;28;20196;-71
2023/10/23 02:57:26;;;;;;;33.50;17.67;;;;;;;;;;5018695;28;20266;-71
2023/10/23 02:59:52;;;;;;;75.90;19.27;;;;;;;;;;5025867;28;20186;-71
2023/10/23 03:02:18;;;;;;;55.70;18.38;;;;;;;;;;5028233;28;20265;-71
2023/10/23 03:04:43;;;;;;;63.83;18.27;;;;;;;;;;5025929;28;20194;-70
2023/10/23 03:07:09;;;;;;;56.72;16.65;;;;;;;;;;5028301;28;20194;-71
2023/10/23 03:09:35;;;;;;;70.65;19.08;;;;;;;;;;5028253;28;20182;-71
2023/10/23 03:12:00;;;;;;;47.65;17.40;;;;;;;;;;5030106;28;20236;-71
2023/10/23 03:14:26;;;;;;;35.88;14.98;;;;;;;;;;5030879;28;20232;-71
2023/10/23 03:16:51;;;;;;;63.47;16.55;;;;;;;;;;5042925;28;20207;-70
2023/10/23 03:19:16;;;;;;;59.35;16.98;;;;;;;;;;5023554;28;20532;-71
2023/10/23 03:21:42;;;;;;;57.30;17.10;;;;;;;;;;5017661;28;20547;-71
2023/10/23 03:24:08;;;;;;;67.85;17.73;;;;;;;;;;5014594;28;20198;-70
2023/10/23 03:26:33;;;;;;;41.85;17.05;;;;;;;;;;5028884;28;20185;-70
2023/10/23 03:28:59;;;;;;;76.60;18.38;;;;;;;;;;5029882;28;20178;-70
2023/10/23 03:31:24;;;;;;;58.20;17.48;;;;;;;;;;5024361;28;20178;-69
2023/10/23 03:33:49;;;;;;;43.17;17.10;;;;;;;;;;5021613;28;20189;-70
2023/10/23 03:36:16;;;;;;;65.32;17.65;;;;;;;;;;5026930;28;20316;-70
2023/10/23 03:38:41;;;;;;;48.22;16.65;;;;;;;;;;5021446;28;20210;-70
2023/10/23 03:41:07;;;;;;;62.72;17.70;;;;;;;;;;5030600;28;20201;-69
2023/10/23 03:43:32;;;;;;;95.45;19.25;;;;;;;;;;5027766;28;20241;-71
2023/10/23 03:46:02;;;;;;;32.25;15.98;;;;;;;;;;5028962;28;20205;-71
2023/10/23 03:48:27;;;;;;;45.90;15.82;;;;;;;;;;5016162;28;20186;-70
2023/10/23 03:50:53;;;;;;;51.58;16.48;;;;;;;;;;5032244;28;20258;-72
2023/10/23 03:53:18;;;;;;;31.00;15.02;;;;;;;;;;5030538;28;20236;-70
2023/10/23 03:55:44;;;;;;;28.88;14.55;;;;;;;;;;5022326;28;20186;-71
2023/10/23 03:58:09;;;;;;;36.35;16.05;;;;;;;;;;5029550;28;20288;-71
2023/10/23 04:00:35;;;;;;;143.77;22.50;;;;;;;;;;5030063;28;20182;-70
2023/10/23 04:03:00;;;;;;;119.43;20.88;;;;;;;;;;5018992;28;20194;-71
2023/10/23 04:05:25;;;;;;;133.05;21.35;;;;;;;;;;5038323;28;20193;-70
2023/10/23 04:07:51;;;;;;;73.13;18.92;;;;;;;;;;5029205;28;20289;-71
2023/10/23 04:10:16;;;;;;;160.70;23.63;;;;;;;;;;5020969;28;20668;-70
2023/10/23 04:12:42;;;;;;;68.03;18.48;;;;;;;;;;5023167;28;20268;-70
2023/10/23 04:15:07;;;;;;;82.90;18.15;;;;;;;;;;5023340;28;20237;-70
2023/10/23 04:17:33;;;;;;;102.82;20.42;;;;;;;;;;5026400;28;20681;-70
2023/10/23 04:19:58;;;;;;;43.10;15.55;;;;;;;;;;5025678;28;20592;-70
2023/10/23 04:22:24;;;;;;;29.67;16.05;;;;;;;;;;5026261;28;20560;-70
2023/10/23 04:24:49;;;;;;;27.20;14.77;;;;;;;;;;5034876;28;20487;-71
2023/10/23 04:27:15;;;;;;;39.30;15.23;;;;;;;;;;5028664;28;20337;-71
2023/10/23 04:29:40;;;;;;;58.33;17.25;;;;;;;;;;5025785;28;20175;-71
2023/10/23 04:32:06;;;;;;;89.78;20.42;;;;;;;;;;5027472;28;20265;-70
2023/10/23 04:34:31;;;;;;;64.78;18.48;;;;;;;;;;5027716;28;20488;-71
2023/10/23 04:36:57;;;;;;;41.63;16.88;;;;;;;;;;5031759;28;20230;-71
2023/10/23 04:39:22;;;;;;;25.48;14.77;;;;;;;;;;5027335;28;20225;-70
2023/10/23 04:41:47;;;;;;;30.63;16.25;;;;;;;;;;5030974;28;20194;-71
2023/10/23 04:44:13;;;;;;;39.75;16.70;;;;;;;;;;5021946;28;20687;-70
2023/10/23 04:46:38;;;;;;;31.13;16.60;;;;;;;;;;5028719;28;20194;-70
2023/10/23 04:49:04;;;;;;;28.30;16.08;;;;;;;;;;5023325;28;20202;-70
2023/10/23 04:51:29;;;;;;;46.13;17.23;;;;;;;;;;5028234;28;20186;-70
2023/10/23 04:53:54;;;;;;;22.83;15.23;;;;;;;;;;5039124;28;20208;-70
2023/10/23 04:56:20;;;;;;;35.63;15.95;;;;;;;;;;5028107;28;20541;-70
2023/10/23 04:58:45;;;;;;;30.63;16.15;;;;;;;;;;5028688;28;20209;-70
2023/10/23 05:01:17;;;;;;;43.67;17.23;;;;;;;;;;5026182;28;20199;-70
2023/10/23 05:03:43;;;;;;;36.20;15.90;;;;;;;;;;5032619;28;20255;-70
2023/10/23 05:06:08;;;;;;;25.05;15.30;;;;;;;;;;5041825;28;20304;-70
2023/10/23 05:08:34;;;;;;;19.10;14.38;;;;;;;;;;5032419;28;20265;-71
2023/10/23 05:11:10;;;;;;;25.67;15.85;;;;;;;;;;5026901;28;20744;-70
2023/10/23 05:13:35;;;;;;;25.30;14.75;;;;;;;;;;5026925;28;20196;-70
2023/10/23 05:16:05;;;;;;;24.73;15.68;;;;;;;;;;5026073;28;20234;-71
2023/10/23 05:18:34;;;;;;;36.58;15.85;;;;;;;;;;5015499;28;20215;-70
2023/10/23 05:21:10;;;;;;;20.35;14.98;;;;;;;;;;5020756;28;20215;-70
2023/10/23 05:23:40;;;;;;;35.00;16.45;;;;;;;;;;5030133;28;20247;-70
2023/10/23 05:26:07;;;;;;;35.63;18.30;;;;;;;;;;5028843;28;20217;-70
2023/10/23 05:28:33;;;;;;;72.38;18.95;;;;;;;;;;5033161;28;20684;-71
2023/10/23 05:30:58;;;;;;;60.20;19.25;;;;;;;;;;5017037;28;20197;-71
2023/10/23 05:33:24;;;;;;;86.88;20.30;;;;;;;;;;5024011;28;20250;-71
2023/10/23 05:35:49;;;;;;;66.72;18.85;;;;;;;;;;5025607;28;20194;-72
2023/10/23 05:38:15;;;;;;;84.43;20.73;;;;;;;;;;5030834;28;20217;-70
2023/10/23 05:40:40;;;;;;;49.67;18.52;;;;;;;;;;5027858;28;20183;-71
2023/10/23 05:43:06;;;;;;;63.55;19.25;;;;;;;;;;5037898;28;20652;-72
2023/10/23 05:45:31;;;;;;;50.25;19.25;;;;;;;;;;5019332;28;20195;-72
2023/10/23 05:47:56;;;;;;;124.28;23.75;;;;;;;;;;5034555;28;20240;-72
2023/10/23 05:50:22;;;;;;;71.93;20.95;;;;;;;;;;5039809;28;20339;-71
2023/10/23 05:52:47;;;;;;;50.13;18.77;;;;;;;;;;5031463;28;20186;-72
2023/10/23 05:55:13;;;;;;;63.05;20.27;;;;;;;;;;5027596;28;20540;-71
2023/10/23 05:57:38;;;;;;;85.95;23.25;;;;;;;;;;5024731;28;20202;-70
2023/10/23 06:00:04;;;;;;;45.17;19.58;;;;;;;;;;5028083;28;20210;-70
2023/10/23 06:02:30;;;;;;;64.90;21.27;;;;;;;;;;5027030;28;20214;-70
2023/10/23 06:04:56;;;;;;;35.50;19.83;;;;;;;;;;5028849;28;20205;-69
2023/10/23 06:07:21;;;;;;;45.42;18.50;;;;;;;;;;5030288;28;20186;-70
2023/10/23 06:09:47;;;;;;;58.45;22.05;;;;;;;;;;5026192;28;20214;-70
2023/10/23 06:12:14;;;;;;;51.08;21.40;;;;;;;;;;5030606;28;20190;-70
2023/10/23 06:14:40;;;;;;;46.83;21.60;;;;;;;;;;5030420;28;20206;-69
2023/10/23 06:17:05;;;;;;;69.25;22.63;;;;;;;;;;5024905;28;20191;-69
2023/10/23 06:19:34;;;;;;;80.25;23.55;;;;;;;;;;5038395;28;20210;-69
2023/10/23 06:21:59;;;;;;;41.85;19.92;;;;;;;;;;5039409;28;20221;-69
2023/10/23 06:24:26;;;;;;;42.20;21.33;;;;;;;;;;5029505;28;20262;-69
2023/10/23 06:26:51;;;;;;;72.35;23.48;;;;;;;;;;5025704;28;20684;-69
2023/10/23 06:29:17;;;;;;;50.95;21.65;;;;;;;;;;5027184;28;20231;-69
2023/10/23 06:31:42;;;;;;;64.78;22.90;;;;;;;;;;5029969;28;20273;-70
2023/10/23 06:34:08;;;;;;;66.07;22.38;;;;;;;;;;5031649;28;20551;-70
2023/10/23 06:36:33;;;;;;;46.63;21.50;;;;;;;;;;5051896;28;20190;-71
2023/10/23 06:38:59;;;;;;;41.05;21.00;;;;;;;;;;5036953;28;20736;-70
2023/10/23 06:41:24;;;;;;;42.22;20.77;;;;;;;;;;5029363;28;20642;-70
2023/10/23 06:43:50;;;;;;;43.95;21.02;;;;;;;;;;5030516;28;20204;-69
2023/10/23 06:46:15;;;;;;;45.80;21.95;;;;;;;;;;5026615;28;20274;-70
2023/10/23 06:48:44;;;;;;;68.22;23.95;;;;;;;;;;5022297;28;20200;-70
2023/10/23 06:51:10;;;;;;;49.13;21.90;;;;;;;;;;5025798;28;20191;-70
2023/10/23 06:53:36;;;;;;;49.53;22.45;;;;;;;;;;5024003;28;20190;-70
2023/10/23 06:56:02;;;;;;;43.63;20.30;;;;;;;;;;5023319;28;20510;-69
2023/10/23 06:58:28;;;;;;;42.25;22.25;;;;;;;;;;5028662;28;20533;-69
2023/10/23 07:00:53;;;;;;;63.60;23.30;;;;;;;;;;5032298;28;20273;-69
2023/10/23 07:03:19;;;;;;;50.95;22.67;;;;;;;;;;5021713;28;20196;-71
2023/10/23 07:05:45;;;;;;;51.97;22.30;;;;;;;;;;5025193;28;20210;-70
2023/10/23 07:08:11;;;;;;;55.70;22.23;;;;;;;;;;5040307;28;20207;-70
2023/10/23 07:10:37;;;;;;;42.05;20.63;;;;;;;;;;5032361;28;20182;-69
2023/10/23 07:13:03;;;;;;;40.03;19.27;;;;;;;;;;5033292;28;20273;-69
2023/10/23 07:15:32;;;;;;;56.75;21.45;;;;;;;;;;5030481;28;20269;-70
2023/10/23 07:17:57;;;;;;;71.82;22.77;;;;;;;;;;5023002;28;20203;-69
2023/10/23 07:20:23;;;;;;;98.57;23.52;;;;;;;;;;5025367;28;20565;-71
2023/10/23 07:22:48;;;;;;;107.30;25.08;;;;;;;;;;5034968;28;20253;-70
2023/10/23 07:25:14;;;;;;;73.90;25.20;;;;;;;;;;5019916;28;20186;-71
2023/10/23 07:27:39;;;;;;;124.35;26.38;;;;;;;;;;5018091;28;20186;-70
2023/10/23 07:30:06;;;;;;;126.13;29.55;;;;;;;;;;5034735;28;20192;-69
2023/10/23 07:32:31;;;;;;;86.85;28.60;;;;;;;;;;5029121;28;20198;-70
2023/10/23 07:34:56;;;;;;;74.75;28.58;;;;;;;;;;5023641;28;20574;-70
2023/10/23 07:37:22;;;;;;;64.40;28.27;;;;;;;;;;5034000;28;20194;-71
2023/10/23 07:39:48;;;;;;;54.58;26.70;;;;;;;;;;5030168;28;20289;-71
2023/10/23 07:42:15;;;;;;;53.17;24.77;;;;;;;;;;5029915;28;20218;-69
2023/10/23 07:44:41;;;;;;;60.05;26.60;;;;;;;;;;5024860;28;20198;-70
2023/10/23 07:47:07;;;;;;;51.92;25.77;;;;;;;;;;5020980;28;20549;-70
2023/10/23 07:49:32;;;;;;;53.00;24.58;;;;;;;;;;5035704;28;20186;-70
2023/10/23 07:51:58;;;;;;;60.20;24.55;;;;;;;;;;5033899;28;20197;-69
2023/10/23 07:54:23;;;;;;;49.33;24.45;;;;;;;;;;5028981;28;20676;-70
2023/10/23 07:56:48;;;;;;;45.10;23.33;;;;;;;;;;5029776;28;20249;-70
2023/10/23 07:59:14;;;;;;;52.58;23.75;;;;;;;;;;4320072;28;10000634;-70
2023/10/23 08:01:39;;;;;;;46.20;22.42;;;;;;;;;;5022445;28;20605;-70
2023/10/23 08:04:05;;;;;;;40.50;22.10;;;;;;;;;;5022879;28;20548;-70
2023/10/23 08:06:30;;;;;;;40.97;20.85;;;;;;;;;;5035130;28;20188;-70
2023/10/23 08:08:56;;;;;;;40.15;21.33;;;;;;;;;;5027559;28;20189;-70
2023/10/23 08:11:22;;;;;;;41.33;22.20;;;;;;;;;;5027535;28;20178;-70
2023/10/23 08:13:47;;;;;;;43.45;23.02;;;;;;;;;;5021538;28;20580;-69
2023/10/23 08:16:13;;;;;;;43.22;23.05;;;;;;;;;;5017884;28;20750;-69
2023/10/23 08:18:39;;;;;;;45.83;23.60;;;;;;;;;;5014310;28;20233;-72
2023/10/23 08:21:10;;;;;;;47.03;25.20;;;;;;;;;;5022690;28;20182;-70
2023/10/23 08:23:35;;;;;;;51.80;24.55;;;;;;;;;;5026020;28;20249;-69
2023/10/23 08:26:01;;;;;;;39.53;22.92;;;;;;;;;;5018764;28;20198;-69
2023/10/23 08:28:26;;;;;;;45.60;24.90;;;;;;;;;;5018674;28;20724;-70
2023/10/23 08:30:51;;;;;;;49.45;24.67;;;;;;;;;;5022922;28;20233;-70
2023/10/23 08:33:17;;;;;;;46.80;24.92;;;;;;;;;;5025624;28;20263;-69
2023/10/23 08:35:42;;;;;;;50.08;25.20;;;;;;;;;;5026947;28;20572;-70
2023/10/23 08:38:07;;;;;;;42.97;25.15;;;;;;;;;;5026348;28;20343;-70
2023/10/23 08:40:34;;;;;;;49.85;25.40;;;;;;;;;;5028796;28;20569;-70
2023/10/23 08:42:59;;;;;;;49.42;26.08;;;;;;;;;;5032501;28;20187;-69
2023/10/23 08:45:25;;;;;;;46.20;24.85;;;;;;;;;;5035755;28;20519;-70
2023/10/23 08:47:51;;;;;;;47.88;26.38;;;;;;;;;;5029791;28;20281;-71
2023/10/23 08:50:16;;;;;;;48.80;26.33;;;;;;;;;;5031203;28;20187;-70
2023/10/23 08:52:46;;;;;;;48.40;26.90;;;;;;;;;;5022542;28;20203;-70
2023/10/23 08:55:13;;;;;;;43.72;24.48;;;;;;;;;;5032664;28;20205;-69
2023/10/23 08:57:59;;;;;;;47.05;24.75;;;;;;;;;;5041668;28;20197;-69
2023/10/23 09:00:25;;;;;;;46.40;25.98;;;;;;;;;;5020721;28;20198;-70
2023/10/23 09:02:51;;;;;;;49.22;26.63;;;;;;;;;;5020587;28;20186;-70
2023/10/23 09:05:17;;;;;;;50.15;26.80;;;;;;;;;;5023359;28;20309;-70
2023/10/23 09:07:43;;;;;;;48.85;26.10;;;;;;;;;;5030270;28;20277;-70
2023/10/23 09:10:08;;;;;;;44.22;25.85;;;;;;;;;;5021624;28;20924;-70
2023/10/23 09:12:35;;;;;;;48.50;26.02;;;;;;;;;;5028772;28;20190;-70
2023/10/23 09:15:14;;;;;;;42.65;25.25;;;;;;;;;;5030785;28;20681;-69
2023/10/23 09:17:41;;;;;;;51.28;27.45;;;;;;;;;;5020682;28;20213;-69
2023/10/23 09:20:15;;;;;;;43.35;24.17;;;;;;;;;;5026253;28;20193;-70
2023/10/23 09:22:41;;;;;;;44.25;23.77;;;;;;;;;;5031041;28;20297;-69
2023/10/23 09:25:09;;;;;;;39.10;23.95;;;;;;;;;;5024724;28;20701;-69
2023/10/23 09:27:35;;;;;;;39.03;24.33;;;;;;;;;;5029964;28;20195;-69
2023/10/23 09:30:02;;;;;;;37.80;22.92;;;;;;;;;;5025640;28;20211;-70
2023/10/23 09:32:29;;;;;;;44.58;23.42;;;;;;;;;;5029333;28;20208;-70
2023/10/23 09:34:54;;;;;;;45.53;23.40;;;;;;;;;;5019797;28;20682;-70
2023/10/23 09:37:20;;;;;;;37.35;23.42;;;;;;;;;;5028680;28;20274;-70
2023/10/23 09:39:45;;;;;;;34.47;22.38;;;;;;;;;;5030505;28;20293;-70
2023/10/23 09:42:11;;;;;;;32.50;20.75;;;;;;;;;;5029747;28;20224;-69
2023/10/23 09:44:39;;;;;;;39.88;22.13;;;;;;;;;;4336467;28;10000741;-69
2023/10/23 09:47:05;;;;;;;37.75;20.50;;;;;;;;;;5036653;28;20444;-70
2023/10/23 09:49:32;;;;;;;36.28;20.92;;;;;;;;;;5026773;28;20190;-69
2023/10/23 09:51:59;;;;;;;33.08;20.80;;;;;;;;;;5025119;28;20226;-70
2023/10/23 09:54:30;;;;;;;31.88;19.55;;;;;;;;;;5027313;28;20228;-69
2023/10/23 09:56:56;;;;;;;31.75;20.67;;;;;;;;;;5036408;28;20170;-69
2023/10/23 09:59:59;;;;;;;30.73;20.13;;;;;;;;;;5026835;28;20616;-69
2023/10/23 10:02:27;;;;;;;36.58;20.45;;;;;;;;;;5009227;28;20205;-69
2023/10/23 10:05:07;;;;;;;32.47;20.02;;;;;;;;;;5024243;28;20705;-70
2023/10/23 10:07:53;;;;;;;32.70;19.83;;;;;;;;;;5020692;28;20206;-69
2023/10/23 10:10:20;;;;;;;37.80;20.92;;;;;;;;;;5020910;28;20275;-69
2023/10/23 10:12:46;;;;;;;32.45;19.83;;;;;;;;;;5022474;28;20324;-70
2023/10/23 10:15:12;;;;;;;27.17;18.27;;;;;;;;;;5035356;28;20245;-70
2023/10/23 10:17:39;;;;;;;31.75;19.52;;;;;;;;;;5025791;28;20194;-69
2023/10/23 10:20:08;;;;;;;28.13;18.80;;;;;;;;;;5023795;28;20497;-68
2023/10/23 10:22:39;;;;;;;30.38;19.30;;;;;;;;;;5025728;28;20669;-70
2023/10/23 10:25:06;;;;;;;26.88;19.08;;;;;;;;;;5016819;28;20182;-70
2023/10/23 10:27:32;;;;;;;29.60;19.10;;;;;;;;;;5028870;28;20740;-70
2023/10/23 10:30:06;;;;;;;31.90;18.85;;;;;;;;;;5033611;28;20197;-70
2023/10/23 10:32:35;;;;;;;30.20;17.33;;;;;;;;;;5034300;28;20214;-70
2023/10/23 10:35:03;;;;;;;26.25;18.02;;;;;;;;;;5016737;28;20186;-70
2023/10/23 10:37:31;;;;;;;30.73;18.75;;;;;;;;;;5026004;28;21287;-69
2023/10/23 10:39:56;;;;;;;24.33;17.42;;;;;;;;;;5028175;28;20206;-69
2023/10/23 10:42:24;;;;;;;26.88;18.13;;;;;;;;;;5045163;28;20272;-69
2023/10/23 10:44:53;;;;;;;29.58;17.10;;;;;;;;;;5032753;28;20217;-70
2023/10/23 10:47:19;;;;;;;29.42;17.35;;;;;;;;;;5031368;28;20181;-70
2023/10/23 10:49:47;;;;;;;25.20;17.63;;;;;;;;;;5025207;28;20181;-70
2023/10/23 10:52:32;;;;;;;24.80;18.08;;;;;;;;;;5038762;28;20267;-70
2023/10/23 10:55:01;;;;;;;26.23;17.67;;;;;;;;;;5018602;28;20186;-70
2023/10/23 10:57:27;;;;;;;26.08;17.58;;;;;;;;;;5029806;28;20185;-70
2023/10/23 10:59:59;;;;;;;24.50;17.35;;;;;;;;;;5027973;28;20645;-69
2023/10/23 11:02:25;;;;;;;23.27;16.60;;;;;;;;;;5026702;28;20201;-69
2023/10/23 11:04:51;;;;;;;29.23;17.42;;;;;;;;;;5038891;28;20190;-70
2023/10/23 11:07:26;;;;;;;26.92;16.95;;;;;;;;;;5042325;28;20196;-69
2023/10/23 11:09:53;;;;;;;24.75;16.35;;;;;;;;;;5034972;28;20671;-69
2023/10/23 11:12:19;;;;;;;24.40;16.40;;;;;;;;;;5039658;28;20190;-69
2023/10/23 11:14:47;;;;;;;20.83;16.13;;;;;;;;;;5029101;28;20241;-70
2023/10/23 11:17:13;;;;;;;22.60;15.18;;;;;;;;;;5030766;28;20198;-70
2023/10/23 11:19:41;;;;;;;21.73;15.45;;;;;;;;;;5048073;28;20358;-69
2023/10/23 11:22:08;;;;;;;21.95;14.98;;;;;;;;;;5027047;28;20205;-70
2023/10/23 11:24:34;;;;;;;23.98;15.45;;;;;;;;;;5023532;28;20268;-69
2023/10/23 11:26:59;;;;;;;24.95;14.35;;;;;;;;;;5035090;28;20189;-69
2023/10/23 11:29:25;;;;;;;21.67;14.80;;;;;;;;;;5040462;28;20185;-71
2023/10/23 11:31:52;;;;;;;21.10;13.35;;;;;;;;;;5030855;28;20194;-69
2023/10/23 11:34:18;;;;;;;22.35;13.43;;;;;;;;;;5029943;28;20629;-70
2023/10/23 11:36:46;;;;;;;20.88;13.63;;;;;;;;;;5034234;28;20185;-69
2023/10/23 11:39:13;;;;;;;18.73;13.07;;;;;;;;;;5039081;28;20524;-69
2023/10/23 11:41:39;;;;;;;18.50;12.88;;;;;;;;;;5040271;28;20287;-69
2023/10/23 11:44:04;;;;;;;20.50;13.38;;;;;;;;;;5026045;28;20210;-69
2023/10/23 11:46:30;;;;;;;17.33;12.98;;;;;;;;;;5018195;28;20759;-70
2023/10/23 11:48:56;;;;;;;19.60;13.60;;;;;;;;;;5023412;28;20182;-70
2023/10/23 11:51:22;;;;;;;20.02;13.05;;;;;;;;;;5026976;28;20182;-70
2023/10/23 11:53:47;;;;;;;20.13;13.50;;;;;;;;;;5014941;28;20190;-69
2023/10/23 11:56:12;;;;;;;20.27;12.95;;;;;;;;;;5024910;28;20182;-70
2023/10/23 11:58:38;;;;;;;18.30;12.23;;;;;;;;;;5030570;28;20214;-70
2023/10/23 12:01:04;;;;;;;20.83;13.60;;;;;;;;;;5029056;28;20683;-70
2023/10/23 12:03:30;;;;;;;17.00;12.63;;;;;;;;;;5019838;28;20218;-70
2023/10/23 12:05:55;;;;;;;16.27;11.88;;;;;;;;;;5028786;28;20191;-70
2023/10/23 12:08:21;;;;;;;19.08;12.05;;;;;;;;;;5028618;28;20178;-69
2023/10/23 12:10:47;;;;;;;17.65;11.70;;;;;;;;;;5028845;28;20609;-70
2023/10/23 12:13:12;;;;;;;14.40;10.55;;;;;;;;;;5044824;28;20190;-70
2023/10/23 12:15:37;;;;;;;18.17;10.82;;;;;;;;;;5029782;28;20264;-71
2023/10/23 12:18:03;;;;;;;20.73;11.23;;;;;;;;;;5022765;28;20306;-70
2023/10/23 12:20:29;;;;;;;20.95;11.45;;;;;;;;;;5031709;28;20657;-70
2023/10/23 12:22:55;;;;;;;15.82;10.63;;;;;;;;;;5017919;28;20648;-70
2023/10/23 12:25:21;;;;;;;17.15;11.05;;;;;;;;;;5042882;28;20185;-70
2023/10/23 12:27:46;;;;;;;15.25;10.50;;;;;;;;;;5027499;28;20689;-70
2023/10/23 12:30:14;;;;;;;14.98;10.80;;;;;;;;;;5026554;28;20201;-70
2023/10/23 12:32:40;;;;;;;17.95;11.13;;;;;;;;;;5027258;28;20194;-70
2023/10/23 12:35:06;;;;;;;17.02;10.32;;;;;;;;;;5032099;28;20182;-70
2023/10/23 12:37:32;;;;;;;16.05;10.02;;;;;;;;;;5030514;28;20650;-70
2023/10/23 12:40:00;;;;;;;22.33;10.40;;;;;;;;;;5026063;28;20246;-70
2023/10/23 12:42:26;;;;;;;15.90;9.45;;;;;;;;;;5050598;28;20273;-70
2023/10/23 12:44:52;;;;;;;19.77;10.25;;;;;;;;;;5023290;28;20190;-70
2023/10/23 12:47:18;;;;;;;16.15;10.18;;;;;;;;;;5036739;28;20265;-68
2023/10/23 12:49:44;;;;;;;16.52;9.80;;;;;;;;;;5028377;28;20276;-69
2023/10/23 12:52:11;;;;;;;15.57;9.50;;;;;;;;;;5031045;28;20647;-69
2023/10/23 12:54:37;;;;;;;16.50;11.23;;;;;;;;;;5035796;28;20202;-69
2023/10/23 12:57:03;;;;;;;17.75;11.25;;;;;;;;;;5027159;28;20193;-69
2023/10/23 12:59:30;;;;;;;19.90;12.38;;;;;;;;;;5026835;28;20285;-69
2023/10/23 13:01:55;;;;;;;18.42;11.63;;;;;;;;;;5021464;28;20179;-69
2023/10/23 13:04:21;;;;;;;21.42;12.93;;;;;;;;;;5024838;28;20186;-69
2023/10/23 13:06:50;;;;;;;20.05;13.20;;;;;;;;;;5032979;28;20197;-69
2023/10/23 13:09:16;;;;;;;18.50;12.60;;;;;;;;;;5039454;28;20177;-69
2023/10/23 13:11:42;;;;;;;20.85;13.48;;;;;;;;;;5037328;28;20521;-69
2023/10/23 13:14:07;;;;;;;20.13;13.80;;;;;;;;;;5031103;28;20298;-69
2023/10/23 13:16:48;;;;;;;22.02;13.60;;;;;;;;;;4867531;28;10000527;-69
2023/10/23 13:19:13;;;;;;;22.27;14.30;;;;;;;;;;5031981;28;20830;-69
2023/10/23 13:21:39;;;;;;;19.75;13.75;;;;;;;;;;5013086;28;20649;-69
2023/10/23 13:24:05;;;;;;;21.50;14.00;;;;;;;;;;5022297;28;20248;-69
2023/10/23 13:26:31;;;;;;;20.15;13.05;;;;;;;;;;5018346;28;20193;-69
2023/10/23 13:28:56;;;;;;;20.13;12.20;;;;;;;;;;5036558;28;20185;-69
2023/10/23 13:31:25;;;;;;;16.95;11.60;;;;;;;;;;5036317;28;20186;-69
2023/10/23 13:33:50;;;;;;;15.52;11.23;;;;;;;;;;5020923;28;20246;-69
2023/10/23 13:36:16;;;;;;;20.42;12.75;;;;;;;;;;5031830;28;20232;-69
2023/10/23 13:38:41;;;;;;;18.27;12.13;;;;;;;;;;5031809;28;20206;-70
2023/10/23 13:41:07;;;;;;;16.60;12.45;;;;;;;;;;5028801;28;20203;-69
2023/10/23 13:43:33;;;;;;;19.88;12.95;;;;;;;;;;5016596;28;20252;-70
2023/10/23 13:45:59;;;;;;;21.73;15.13;;;;;;;;;;5020660;28;20187;-70
2023/10/23 13:48:25;;;;;;;21.08;15.10;;;;;;;;;;5032964;28;20531;-68
2023/10/23 13:50:51;;;;;;;21.58;14.77;;;;;;;;;;5025314;28;20296;-68
2023/10/23 13:53:23;;;;;;;22.10;16.08;;;;;;;;;;5024961;28;20194;-70
2023/10/23 13:55:49;;;;;;;24.25;15.68;;;;;;;;;;5043936;28;20311;-69
2023/10/23 13:58:15;;;;;;;22.23;15.45;;;;;;;;;;5025163;28;20213;-70
2023/10/23 14:00:41;;;;;;;24.00;15.40;;;;;;;;;;5023912;28;20197;-70
2023/10/23 14:03:06;;;;;;;22.33;15.35;;;;;;;;;;5021324;28;20249;-69
2023/10/23 14:05:33;;;;;;;26.75;16.20;;;;;;;;;;5024985;28;20264;-69
2023/10/23 14:08:01;;;;;;;25.60;15.70;;;;;;;;;;5015022;28;20202;-69
2023/10/23 14:10:26;;;;;;;23.63;15.63;;;;;;;;;;5024552;28;20193;-69
2023/10/23 14:12:52;;;;;;;21.65;15.43;;;;;;;;;;5027510;28;20646;-69